Terminal Aerodrome Forecast
Issued by NWS

Home | Current Version | Previous Version | Text Only | Print | Product List | Glossary On
Versions: 1 2 3 4 5 6 7 8 9 10 11 12 13 14 15 16 17 18 19 20 21 22 23 24 25 26 27 28 29 30 31 32 33 34 35 36 37
000
FTUS43 KGRB 201100
TAFRHI
TAF
KRHI 201135Z 2012/2112 23008KT 6SM BR OVC008
     FM201400 26009G15KT P6SM BKN015
     FM201700 27010G18KT P6SM SCT020 BKN035
     FM202300 VRB03KT P6SM SCT035 BKN250
     FM210300 28003KT 5SM -SHRA BR SCT006 OVC010
      TEMPO 2105/2109 2SM SHRA BR OVC006
     FM210900 32007KT P6SM BKN015=

USA.gov is the U.S. government's official web portal to all federal, state and local government web resources and services.